aviador You're here:

KCCA Decoded Metar

in _UNIDENTIFIED
Report Time2018-04-27 02:55:00
UTC Time2018-04-27 03:08:37
Flight Rules vfr VFR
WindCalm
Visibility9999 m
Phenomena:N/A
Clouds:Broken 070 Hf
Expected CloudBase > 400 ft AGL from Temp-Dew spread
Ceiling7,000 ft
Temp12°C (ISA -2)
Dew Point11°C (94% RH)
QNH1015 hPa
Density Alt390 ft
Elevation515 ft
Report Wrong Elevation
Raw Report
KCCA 270255Z AUTO 00000KT 8SM BKN070 12/11 A2998 RMK AO2=

Extra information for KCCA:More info

Metar Taf Metar & Taf Last 4 Metars F.Rules Stats Wind Profile Meteogram Temp Stats Metar ALERT Operation Metar Decoded Social comments